Time;durP1;ratioP1;P1;durP2;ratioP2;P2;SDS_P1;SDS_P2;PMS_P1;PMS_P2;Temp;Humidity;BMP_temperature;BMP_pressure;BME280_temperature;BME280_humidity;BME280_pressure;Samples;Min_cycle;Max_cycle;Signal;HPM_P1;HPM_P2
2023/10/31 00:00:13;;;;;;;129.53;121.00;;;11.50;95.30;;;;;;5080256;28;20176;-94
2023/10/31 00:02:39;;;;;;;156.77;146.77;;;11.50;95.30;;;;;;5062260;28;20184;-94
2023/10/31 00:05:05;;;;;;;159.50;149.37;;;11.50;95.30;;;;;;5062058;28;20204;-93
2023/10/31 00:07:30;;;;;;;156.37;146.17;;;11.50;95.30;;;;;;5061358;28;20180;-92
2023/10/31 00:09:56;;;;;;;127.73;119.50;;;11.50;95.40;;;;;;5056316;28;20180;-93
2023/10/31 00:12:21;;;;;;;129.40;120.93;;;11.50;95.40;;;;;;5064395;28;20207;-93
2023/10/31 00:14:47;;;;;;;126.43;118.07;;;11.50;95.40;;;;;;5055100;28;20195;-93
2023/10/31 00:17:12;;;;;;;124.20;115.80;;;11.50;95.40;;;;;;5055897;28;20640;-93
2023/10/31 00:19:38;;;;;;;129.07;120.60;;;11.60;95.40;;;;;;5060341;28;20164;-94
2023/10/31 00:22:04;;;;;;;130.50;121.83;;;11.50;95.40;;;;;;5060065;28;20187;-93
2023/10/31 00:24:31;;;;;;;132.40;123.77;;;11.60;95.40;;;;;;5059802;28;20164;-93
2023/10/31 00:26:57;;;;;;;131.50;122.77;;;11.60;95.50;;;;;;5059657;28;20188;-95
2023/10/31 00:29:23;;;;;;;136.30;127.50;;;11.50;95.40;;;;;;5061663;28;20202;-96
2023/10/31 00:31:48;;;;;;;131.40;122.70;;;11.60;95.50;;;;;;5059447;28;20196;-96
2023/10/31 00:34:14;;;;;;;135.47;126.63;;;11.60;95.50;;;;;;5053165;28;20230;-94
2023/10/31 00:36:39;;;;;;;135.70;126.87;;;11.60;95.50;;;;;;5052921;28;20176;-93
2023/10/31 00:39:05;;;;;;;135.97;127.57;;;11.60;95.50;;;;;;5063052;28;20164;-92
2023/10/31 00:41:30;;;;;;;138.07;129.00;;;11.50;95.50;;;;;;5080740;28;20175;-91
2023/10/31 00:43:56;;;;;;;139.00;129.60;;;11.50;95.50;;;;;;5063429;28;20236;-90
2023/10/31 00:46:21;;;;;;;135.17;126.53;;;11.50;95.60;;;;;;5063307;28;20222;-93
2023/10/31 00:48:48;;;;;;;137.50;128.40;;;11.60;95.60;;;;;;5063284;28;20145;-91
2023/10/31 00:51:13;;;;;;;141.17;131.70;;;11.60;95.60;;;;;;5063311;28;20191;-91
2023/10/31 00:53:39;;;;;;;144.77;135.40;;;11.60;95.60;;;;;;5057418;28;20180;-94
2023/10/31 00:56:05;;;;;;;145.77;136.37;;;11.60;95.60;;;;;;5043190;28;20230;-94
2023/10/31 00:58:30;;;;;;;145.20;135.77;;;11.70;95.60;;;;;;5062691;28;20183;-94
2023/10/31 01:00:56;;;;;;;145.33;135.97;;;11.70;95.60;;;;;;5048307;28;20180;-95
2023/10/31 01:03:21;;;;;;;148.10;138.50;;;11.70;95.60;;;;;;5050946;28;20222;-93
2023/10/31 01:05:47;;;;;;;146.80;137.33;;;11.60;95.60;;;;;;5072666;28;20199;-93
2023/10/31 01:08:12;;;;;;;147.30;137.80;;;11.60;95.60;;;;;;5075537;28;20172;-93
2023/10/31 01:10:38;;;;;;;147.87;138.60;;;11.60;95.60;;;;;;5073069;28;20176;-94
2023/10/31 01:13:03;;;;;;;152.90;143.03;;;11.60;95.60;;;;;;5052276;28;20211;-94
2023/10/31 01:15:29;;;;;;;155.33;145.67;;;11.70;95.70;;;;;;5068658;28;20183;-93
2023/10/31 01:17:54;;;;;;;154.40;144.73;;;11.60;95.60;;;;;;5062435;28;20231;-93
2023/10/31 01:20:20;;;;;;;157.10;147.07;;;11.60;95.60;;;;;;5044271;28;20301;-92
2023/10/31 01:22:45;;;;;;;160.03;149.83;;;11.70;95.60;;;;;;5049191;28;20179;-94
2023/10/31 01:25:11;;;;;;;151.87;142.40;;;11.60;95.60;;;;;;5047219;28;20211;-93
2023/10/31 01:27:36;;;;;;;158.75;148.80;;;11.60;95.70;;;;;;5043062;28;20611;-94
2023/10/31 01:30:03;;;;;;;159.20;149.33;;;11.60;95.60;;;;;;5049089;28;20669;-92
2023/10/31 01:32:28;;;;;;;164.20;153.80;;;11.60;95.70;;;;;;5047214;28;20203;-93
2023/10/31 01:34:54;;;;;;;161.60;151.60;;;11.60;95.70;;;;;;5045158;28;20282;-93
2023/10/31 01:37:20;;;;;;;173.23;162.30;;;11.70;95.70;;;;;;5061929;28;20164;-90
2023/10/31 01:39:46;;;;;;;171.93;161.40;;;11.70;95.70;;;;;;5062399;28;20172;-91
2023/10/31 01:42:15;;;;;;;172.60;161.87;;;11.70;95.70;;;;;;5062353;28;20170;-92
2023/10/31 01:44:41;;;;;;;169.53;159.07;;;11.70;95.70;;;;;;5079413;28;20156;-92
2023/10/31 01:47:07;;;;;;;168.47;158.17;;;11.70;95.70;;;;;;5062390;28;20152;-92
2023/10/31 01:49:32;;;;;;;170.83;159.87;;;11.60;95.70;;;;;;5079065;28;20199;-91
2023/10/31 01:52:00;;;;;;;173.53;163.00;;;11.60;95.70;;;;;;5062281;28;20206;-90
2023/10/31 01:54:26;;;;;;;174.00;163.40;;;11.60;95.70;;;;;;5062237;28;20152;-91
2023/10/31 01:56:56;;;;;;;178.00;167.20;;;11.70;95.80;;;;;;5062061;28;20203;-91
2023/10/31 01:59:22;;;;;;;173.03;162.37;;;11.70;95.80;;;;;;5062117;28;20148;-90
2023/10/31 02:01:49;;;;;;;181.27;169.97;;;11.70;95.80;;;;;;5062060;28;20206;-91
2023/10/31 02:04:14;;;;;;;180.97;170.13;;;11.70;95.80;;;;;;5062057;28;20152;-92
2023/10/31 02:06:40;;;;;;;172.07;161.63;;;11.70;95.70;;;;;;5061986;28;20180;-90
2023/10/31 02:09:06;;;;;;;170.47;159.87;;;11.70;95.80;;;;;;5061896;28;20164;-91
2023/10/31 02:11:32;;;;;;;180.30;169.30;;;11.70;95.80;;;;;;5062086;28;20196;-92
2023/10/31 02:13:57;;;;;;;181.60;170.67;;;11.70;95.80;;;;;;5061954;28;20175;-90
2023/10/31 02:16:23;;;;;;;172.53;162.20;;;11.70;95.80;;;;;;5078941;28;20179;-90
2023/10/31 02:18:48;;;;;;;171.07;160.83;;;11.70;95.80;;;;;;5061923;28;20188;-90
2023/10/31 02:21:17;;;;;;;188.40;177.00;;;11.60;95.80;;;;;;5061909;28;20148;-91
2023/10/31 02:23:42;;;;;;;187.27;175.73;;;11.70;95.90;;;;;;5061884;28;20171;-90
2023/10/31 02:26:08;;;;;;;177.93;166.80;;;11.70;95.90;;;;;;5078685;28;20247;-91
2023/10/31 02:28:33;;;;;;;180.00;168.30;;;11.70;95.90;;;;;;5061811;28;20159;-90
2023/10/31 02:30:59;;;;;;;170.30;159.90;;;11.70;95.90;;;;;;5061627;28;20164;-90
2023/10/31 02:33:24;;;;;;;173.90;163.37;;;11.80;95.90;;;;;;5078905;28;20180;-91
2023/10/31 02:35:50;;;;;;;200.77;188.53;;;11.70;95.90;;;;;;5061696;28;20168;-90
2023/10/31 02:38:15;;;;;;;176.77;166.10;;;11.80;95.90;;;;;;5061660;28;20156;-91
2023/10/31 02:40:41;;;;;;;175.10;164.70;;;11.80;95.90;;;;;;5061653;28;20166;-91
2023/10/31 02:43:06;;;;;;;179.60;168.90;;;11.80;95.90;;;;;;5061650;28;20183;-91
2023/10/31 02:45:32;;;;;;;208.80;196.13;;;11.70;95.90;;;;;;5061571;28;20184;-92
2023/10/31 02:47:58;;;;;;;204.70;192.13;;;11.70;95.90;;;;;;5061635;28;20148;-91
2023/10/31 02:50:23;;;;;;;182.97;171.87;;;11.70;96.00;;;;;;5061629;28;20257;-91
2023/10/31 02:52:49;;;;;;;184.67;173.13;;;11.70;95.90;;;;;;5061497;28;20179;-92
2023/10/31 02:55:14;;;;;;;195.93;184.23;;;11.70;96.00;;;;;;5061513;28;20199;-92
2023/10/31 02:57:40;;;;;;;207.27;194.83;;;11.70;96.00;;;;;;5061537;28;20137;-90
2023/10/31 03:00:06;;;;;;;206.47;194.10;;;11.70;96.00;;;;;;5061695;28;20161;-92
2023/10/31 03:02:32;;;;;;;183.70;172.80;;;11.70;96.00;;;;;;5065462;28;20168;-92
2023/10/31 03:04:57;;;;;;;182.57;171.37;;;11.70;96.00;;;;;;5065344;28;20233;-92
2023/10/31 03:07:23;;;;;;;206.37;193.97;;;11.70;96.00;;;;;;5065341;28;20231;-91
2023/10/31 03:09:48;;;;;;;206.83;194.40;;;11.70;96.00;;;;;;5065406;28;20170;-91
2023/10/31 03:12:14;;;;;;;203.63;191.17;;;11.70;96.00;;;;;;5065269;28;20219;-90
2023/10/31 03:14:39;;;;;;;177.37;166.77;;;11.70;96.00;;;;;;5065087;28;20192;-90
2023/10/31 03:17:05;;;;;;;180.33;169.70;;;11.80;96.10;;;;;;5065172;28;20183;-90
2023/10/31 03:19:30;;;;;;;102.73;96.27;;;11.80;96.00;;;;;;5065197;28;20160;-90
2023/10/31 03:21:56;;;;;;;94.60;88.50;;;11.70;96.00;;;;;;5065118;28;20164;-90
2023/10/31 03:24:21;;;;;;;97.23;90.90;;;11.70;96.00;;;;;;5065025;28;20160;-90
2023/10/31 03:26:47;;;;;;;98.43;92.03;;;11.70;96.00;;;;;;5064829;28;20188;-90
2023/10/31 03:29:12;;;;;;;101.97;95.20;;;11.70;96.00;;;;;;5064915;28;20157;-89
2023/10/31 03:31:38;;;;;;;103.83;97.23;;;11.70;96.00;;;;;;5064876;28;20194;-89
2023/10/31 03:34:03;;;;;;;105.10;98.57;;;11.70;96.00;;;;;;5064871;28;20148;-88
2023/10/31 03:36:30;;;;;;;101.07;94.57;;;11.80;96.10;;;;;;5064820;28;20191;-89
2023/10/31 03:38:56;;;;;;;104.63;98.23;;;11.70;96.10;;;;;;5064681;28;20148;-91
2023/10/31 03:41:21;;;;;;;104.13;97.70;;;11.80;96.10;;;;;;5064765;28;20171;-90
2023/10/31 03:43:47;;;;;;;106.33;99.60;;;11.70;96.10;;;;;;5064677;28;20164;-91
2023/10/31 03:46:12;;;;;;;108.80;101.57;;;11.70;96.10;;;;;;5064592;28;20192;-91
2023/10/31 03:48:38;;;;;;;103.17;96.60;;;11.70;96.10;;;;;;5064582;28;20225;-91
2023/10/31 03:51:03;;;;;;;101.43;95.00;;;11.70;96.10;;;;;;5064462;28;20148;-92
2023/10/31 03:53:29;;;;;;;98.93;92.63;;;11.70;96.10;;;;;;5064524;28;20160;-89
2023/10/31 03:55:54;;;;;;;93.60;87.70;;;11.70;96.20;;;;;;5064367;28;20169;-91
2023/10/31 03:58:20;;;;;;;96.43;89.87;;;11.70;96.20;;;;;;5064486;28;20156;-91
2023/10/31 04:00:45;;;;;;;95.37;89.17;;;11.70;96.20;;;;;;5064224;28;20228;-91
2023/10/31 04:03:11;;;;;;;94.63;88.60;;;11.70;96.20;;;;;;5064362;28;20164;-91
2023/10/31 04:05:37;;;;;;;93.70;87.70;;;11.70;96.20;;;;;;5064226;28;20191;-91
2023/10/31 04:08:03;;;;;;;89.47;83.57;;;11.70;96.20;;;;;;5064294;28;20154;-89
2023/10/31 04:10:28;;;;;;;91.77;85.73;;;11.70;96.30;;;;;;5064164;28;20160;-89
2023/10/31 04:12:54;;;;;;;90.57;84.83;;;11.70;96.30;;;;;;5063786;28;20195;-90
2023/10/31 04:15:19;;;;;;;89.37;83.13;;;11.70;96.30;;;;;;5063912;28;20204;-90
2023/10/31 04:17:45;;;;;;;88.33;82.57;;;11.70;96.30;;;;;;5064068;28;20153;-92
2023/10/31 04:20:11;;;;;;;87.43;81.73;;;11.70;96.30;;;;;;5063993;28;20156;-92
2023/10/31 04:22:36;;;;;;;87.13;81.53;;;11.70;96.30;;;;;;5063925;28;20163;-92
2023/10/31 04:25:02;;;;;;;87.33;81.77;;;11.70;96.30;;;;;;5063831;28;20192;-90
2023/10/31 04:27:28;;;;;;;83.33;78.00;;;11.70;96.30;;;;;;5063696;28;20214;-92
2023/10/31 04:29:53;;;;;;;85.40;80.00;;;11.70;96.30;;;;;;5063818;28;20164;-91
2023/10/31 04:32:19;;;;;;;84.00;78.50;;;11.70;96.40;;;;;;5063764;28;20187;-90
2023/10/31 04:34:44;;;;;;;86.13;80.60;;;11.70;96.40;;;;;;5063657;28;20175;-91
2023/10/31 04:37:10;;;;;;;85.57;80.17;;;11.70;96.40;;;;;;5063689;28;20149;-91
2023/10/31 04:39:35;;;;;;;83.40;77.97;;;11.70;96.40;;;;;;5063663;28;20145;-91
2023/10/31 04:42:01;;;;;;;80.67;75.17;;;11.70;96.40;;;;;;5063615;28;20325;-91
2023/10/31 04:44:26;;;;;;;83.17;77.57;;;11.80;96.50;;;;;;5063562;28;20163;-91
2023/10/31 04:46:52;;;;;;;78.83;73.60;;;11.70;96.50;;;;;;5063420;28;20243;-91
2023/10/31 04:49:17;;;;;;;80.33;74.93;;;11.80;96.50;;;;;;5063289;28;20163;-91
2023/10/31 04:51:43;;;;;;;79.07;73.80;;;11.80;96.50;;;;;;5063425;28;20204;-92
2023/10/31 04:54:09;;;;;;;76.30;70.80;;;11.80;96.50;;;;;;5063416;28;20155;-91
2023/10/31 04:56:34;;;;;;;76.87;71.20;;;11.80;96.50;;;;;;5063159;28;20206;-92
2023/10/31 04:59:00;;;;;;;71.70;66.40;;;11.80;96.60;;;;;;5063324;28;20168;-91
2023/10/31 05:01:26;;;;;;;81.37;75.17;;;11.80;96.50;;;;;;5063236;28;20144;-91
2023/10/31 05:03:52;;;;;;;81.33;75.13;;;11.80;96.60;;;;;;5063174;28;20175;-91
2023/10/31 05:06:21;;;;;;;82.40;76.27;;;11.90;96.60;;;;;;5063113;28;20191;-92
2023/10/31 05:08:47;;;;;;;83.97;77.53;;;11.90;96.60;;;;;;5063092;28;20223;-91
2023/10/31 05:11:13;;;;;;;84.50;78.00;;;11.90;96.60;;;;;;5062941;28;20152;-91
2023/10/31 05:13:39;;;;;;;83.63;77.13;;;11.80;96.60;;;;;;5063035;28;20169;-91
2023/10/31 05:16:05;;;;;;;85.33;78.93;;;11.80;96.60;;;;;;5080012;28;20194;-92
2023/10/31 05:18:31;;;;;;;85.90;79.17;;;11.80;96.60;;;;;;5062866;28;20156;-91
2023/10/31 05:20:56;;;;;;;81.80;75.47;;;11.90;96.60;;;;;;5062788;28;20191;-90
2023/10/31 05:23:22;;;;;;;86.83;79.97;;;11.80;96.60;;;;;;5062146;28;20219;-91
2023/10/31 05:25:47;;;;;;;89.83;82.17;;;11.90;96.60;;;;;;5062522;28;20210;-91
2023/10/31 05:28:13;;;;;;;91.73;83.73;;;11.80;96.60;;;;;;5062777;28;20176;-91
2023/10/31 05:30:38;;;;;;;90.23;82.83;;;11.80;96.60;;;;;;5062605;28;20180;-92
2023/10/31 05:33:04;;;;;;;90.23;82.53;;;11.90;96.60;;;;;;5062590;28;20192;-92
2023/10/31 05:35:29;;;;;;;91.30;83.30;;;11.90;96.60;;;;;;5062401;28;20255;-91
2023/10/31 05:37:55;;;;;;;88.57;80.60;;;11.90;96.60;;;;;;5062519;28;20156;-91
2023/10/31 05:40:24;;;;;;;90.70;82.40;;;11.80;96.60;;;;;;5062451;28;20211;-92
2023/10/31 05:42:50;;;;;;;92.20;83.30;;;11.80;96.60;;;;;;5062457;28;20152;-91
2023/10/31 05:45:15;;;;;;;88.93;80.77;;;11.90;96.60;;;;;;5062370;28;20168;-92
2023/10/31 05:47:41;;;;;;;88.10;80.07;;;11.80;96.60;;;;;;5062378;28;20172;-91
2023/10/31 05:50:07;;;;;;;92.27;83.57;;;11.80;96.60;;;;;;5062359;28;20144;-91
2023/10/31 05:52:33;;;;;;;87.83;79.60;;;11.80;96.60;;;;;;5062145;28;20188;-91
2023/10/31 05:54:58;;;;;;;92.23;83.30;;;11.90;96.60;;;;;;5062138;28;20198;-90
2023/10/31 05:57:24;;;;;;;119.57;108.93;;;11.90;96.70;;;;;;5062213;28;20152;-89
2023/10/31 05:59:50;;;;;;;115.27;105.07;;;11.90;96.70;;;;;;5079316;28;20156;-90
2023/10/31 06:02:15;;;;;;;118.67;108.10;;;11.90;96.70;;;;;;5062092;28;20661;-93
2023/10/31 06:04:41;;;;;;;116.70;106.53;;;11.90;96.70;;;;;;5072992;28;20163;-91
2023/10/31 06:07:07;;;;;;;93.97;85.33;;;11.80;96.60;;;;;;5062091;28;20163;-89
2023/10/31 06:09:33;;;;;;;102.43;93.00;;;11.90;96.70;;;;;;5062076;28;20214;-92
2023/10/31 06:12:02;;;;;;;123.27;112.27;;;11.90;96.60;;;;;;5061883;28;20200;-92
2023/10/31 06:14:28;;;;;;;122.17;111.37;;;11.90;96.60;;;;;;5051822;28;20156;-92
2023/10/31 06:16:54;;;;;;;123.63;112.37;;;11.90;96.60;;;;;;5061829;28;20205;-90
2023/10/31 06:19:20;;;;;;;122.47;111.90;;;11.90;96.70;;;;;;5061795;28;20149;-91
2023/10/31 06:21:46;;;;;;;101.80;91.60;;;11.90;96.70;;;;;;5061962;28;20152;-91
2023/10/31 06:24:11;;;;;;;98.73;89.17;;;11.90;96.70;;;;;;5061763;28;20171;-89
2023/10/31 06:26:37;;;;;;;122.10;111.37;;;11.90;96.70;;;;;;5061627;28;20202;-91
2023/10/31 06:29:03;;;;;;;124.40;113.30;;;11.90;96.70;;;;;;5061858;28;20155;-90
2023/10/31 06:31:29;;;;;;;126.60;115.50;;;11.90;96.70;;;;;;5061728;28;20205;-91
2023/10/31 06:33:54;;;;;;;127.40;116.43;;;11.90;96.70;;;;;;5061842;28;20153;-91
2023/10/31 06:36:20;;;;;;;129.17;118.13;;;11.80;96.70;;;;;;5065770;28;20254;-91
2023/10/31 06:38:45;;;;;;;104.40;95.23;;;11.90;96.70;;;;;;5065944;28;20176;-91
2023/10/31 06:41:11;;;;;;;102.10;93.07;;;11.90;96.70;;;;;;5065859;28;20160;-91
2023/10/31 06:43:37;;;;;;;106.07;96.67;;;11.90;96.70;;;;;;5065849;28;20219;-91
2023/10/31 06:46:04;;;;;;;120.63;110.23;;;11.90;96.70;;;;;;5082818;28;20184;-92
2023/10/31 06:48:29;;;;;;;121.17;110.67;;;11.90;96.70;;;;;;5065740;28;20156;-90
2023/10/31 06:50:55;;;;;;;99.70;90.23;;;11.90;96.70;;;;;;5063402;28;20187;-92
2023/10/31 06:53:20;;;;;;;104.80;94.73;;;11.90;96.70;;;;;;5059391;28;20223;-93
2023/10/31 06:55:46;;;;;;;122.07;111.23;;;11.90;96.70;;;;;;5060323;28;20190;-93
2023/10/31 06:58:11;;;;;;;124.53;113.10;;;11.90;96.70;;;;;;5059086;28;20187;-92
2023/10/31 07:00:40;;;;;;;103.30;93.47;;;11.90;96.70;;;;;;5063140;28;20195;-94
2023/10/31 07:03:09;;;;;;;102.73;92.73;;;11.90;96.70;;;;;;5063933;28;20198;-93
2023/10/31 07:05:35;;;;;;;94.93;85.83;;;11.90;96.70;;;;;;5062087;28;20203;-93
2023/10/31 07:08:01;;;;;;;95.43;86.20;;;11.90;96.70;;;;;;5063603;28;20160;-93
2023/10/31 07:10:26;;;;;;;99.43;89.73;;;11.90;96.70;;;;;;5063948;28;20166;-92
2023/10/31 07:12:52;;;;;;;103.27;93.90;;;12.00;96.70;;;;;;5064386;28;20203;-90
2023/10/31 07:15:17;;;;;;;99.17;90.27;;;12.00;96.70;;;;;;5065145;28;20202;-91
2023/10/31 07:17:43;;;;;;;107.07;97.23;;;12.00;96.70;;;;;;5064259;28;20178;-91
2023/10/31 07:20:09;;;;;;;109.95;99.55;;;12.00;96.70;;;;;;5065133;28;20168;-89
2023/10/31 07:22:34;;;;;;;105.33;96.13;;;12.00;96.70;;;;;;5062109;28;20187;-90
2023/10/31 07:25:03;;;;;;;104.83;95.67;;;12.00;96.70;;;;;;5082189;28;20203;-90
2023/10/31 07:27:28;;;;;;;101.13;92.70;;;12.00;96.70;;;;;;5082106;28;20168;-90
2023/10/31 07:29:54;;;;;;;104.03;95.03;;;12.00;96.70;;;;;;5064954;28;20210;-92
2023/10/31 07:32:19;;;;;;;98.17;89.57;;;12.00;96.70;;;;;;5064813;28;20187;-92
2023/10/31 07:34:45;;;;;;;97.47;89.07;;;12.00;96.70;;;;;;5064870;28;20171;-91
2023/10/31 07:37:11;;;;;;;96.73;88.80;;;12.00;96.70;;;;;;5064846;28;20178;-92
2023/10/31 07:39:36;;;;;;;100.10;91.77;;;12.00;96.70;;;;;;5081932;28;20225;-92
2023/10/31 07:42:02;;;;;;;105.37;96.57;;;12.00;96.70;;;;;;5064730;28;20171;-92
2023/10/31 07:44:28;;;;;;;99.07;90.40;;;12.00;96.70;;;;;;5064634;28;20164;-93
2023/10/31 07:46:53;;;;;;;99.27;90.77;;;12.00;96.70;;;;;;5063960;28;20152;-91
2023/10/31 07:49:19;;;;;;;108.07;98.80;;;12.00;96.70;;;;;;5064674;28;20234;-94
2023/10/31 07:51:45;;;;;;;106.80;97.93;;;12.00;96.70;;;;;;5064537;28;20206;-92
2023/10/31 07:54:12;;;;;;;108.90;99.83;;;12.00;96.70;;;;;;5064486;28;20179;-91
2023/10/31 07:56:38;;;;;;;105.57;97.00;;;12.00;96.70;;;;;;5064397;28;20182;-91
2023/10/31 07:59:04;;;;;;;107.73;98.97;;;12.00;96.70;;;;;;5064455;28;20156;-90
2023/10/31 08:01:29;;;;;;;106.87;97.60;;;12.10;96.80;;;;;;5064425;28;20276;-92
2023/10/31 08:03:55;;;;;;;105.67;97.27;;;12.10;96.80;;;;;;5064347;28;20159;-89
2023/10/31 08:06:20;;;;;;;107.57;99.03;;;12.20;96.80;;;;;;5064301;28;20190;-92
2023/10/31 08:08:46;;;;;;;105.77;96.47;;;12.10;96.70;;;;;;5064153;28;20162;-90
2023/10/31 08:11:11;;;;;;;107.03;98.37;;;12.20;96.80;;;;;;5064154;28;20167;-92
2023/10/31 08:13:38;;;;;;;105.33;96.47;;;12.10;96.70;;;;;;5064143;28;20255;-90
2023/10/31 08:16:06;;;;;;;101.55;93.25;;;12.20;96.80;;;;;;5063973;28;20176;-92
2023/10/31 08:18:31;;;;;;;108.13;99.53;;;12.10;96.70;;;;;;5063961;28;20191;-92
2023/10/31 08:20:57;;;;;;;103.57;95.33;;;12.20;96.70;;;;;;5061943;28;20197;-93
2023/10/31 08:23:22;;;;;;;99.60;91.97;;;12.20;96.70;;;;;;5059908;28;20169;-93
2023/10/31 08:25:48;;;;;;;94.57;87.47;;;12.20;96.70;;;;;;5077063;28;20215;-90
2023/10/31 08:28:14;;;;;;;101.80;94.40;;;12.30;96.70;;;;;;5060173;28;20156;-92
2023/10/31 08:30:39;;;;;;;95.97;89.37;;;12.30;96.80;;;;;;5061087;28;20218;-91
2023/10/31 08:33:05;;;;;;;97.73;91.13;;;12.30;96.70;;;;;;5060765;28;20196;-93
2023/10/31 08:35:32;;;;;;;100.57;94.07;;;12.30;96.70;;;;;;5060669;28;20180;-93
2023/10/31 08:37:58;;;;;;;100.70;93.97;;;12.30;96.70;;;;;;5060653;28;20171;-93
2023/10/31 08:40:23;;;;;;;97.93;91.73;;;12.30;96.70;;;;;;5059790;28;20223;-91
2023/10/31 08:42:49;;;;;;;100.60;94.20;;;12.10;96.60;;;;;;5078965;28;20164;-92
2023/10/31 08:45:15;;;;;;;104.13;97.97;;;12.10;96.60;;;;;;5063262;28;20194;-93
2023/10/31 08:47:40;;;;;;;104.70;98.40;;;12.00;96.50;;;;;;5063476;28;20198;-91
2023/10/31 08:50:08;;;;;;;103.43;97.23;;;11.90;96.60;;;;;;5060377;28;20170;-92
2023/10/31 08:52:34;;;;;;;102.43;96.37;;;11.80;96.40;;;;;;5061081;28;20212;-93
2023/10/31 08:55:00;;;;;;;103.70;97.63;;;11.70;96.50;;;;;;5058593;28;20196;-93
2023/10/31 08:57:25;;;;;;;101.00;94.60;;;11.50;96.40;;;;;;5076029;28;20191;-93
2023/10/31 08:59:51;;;;;;;96.50;90.70;;;11.40;96.40;;;;;;5053469;28;20180;-93
2023/10/31 09:02:16;;;;;;;99.00;92.90;;;11.20;96.20;;;;;;5062181;28;20168;-93
2023/10/31 09:04:42;;;;;;;98.40;92.50;;;11.20;96.20;;;;;;5062878;28;20164;-92
2023/10/31 09:07:07;;;;;;;96.80;90.90;;;11.20;96.20;;;;;;5063181;28;20159;-92
2023/10/31 09:09:33;;;;;;;95.90;90.20;;;11.10;96.20;;;;;;5059190;28;20211;-92
2023/10/31 09:11:59;;;;;;;87.43;82.50;;;11.10;96.10;;;;;;5053612;28;20207;-92
2023/10/31 09:14:24;;;;;;;85.75;80.95;;;10.80;95.90;;;;;;5045282;28;20302;-92
2023/10/31 09:16:50;;;;;;;82.17;77.47;;;10.80;96.00;;;;;;5045112;28;20200;-93
2023/10/31 09:19:15;;;;;;;82.40;77.37;;;10.80;95.90;;;;;;5060027;28;20571;-92
2023/10/31 09:21:41;;;;;;;77.10;72.60;;;10.80;95.80;;;;;;5044481;28;20688;-92
2023/10/31 09:24:08;;;;;;;77.73;73.33;;;10.70;95.70;;;;;;5057503;28;20180;-92
2023/10/31 09:26:33;;;;;;;72.27;68.17;;;10.60;95.60;;;;;;5042203;28;20276;-92
2023/10/31 09:28:59;;;;;;;75.27;70.97;;;10.60;95.50;;;;;;5060288;28;20676;-91
2023/10/31 09:31:24;;;;;;;70.47;65.97;;;10.60;95.60;;;;;;5042543;28;20663;-91
2023/10/31 09:33:50;;;;;;;67.93;64.03;;;10.60;95.40;;;;;;5059978;28;20183;-93
2023/10/31 09:36:16;;;;;;;78.70;73.47;;;10.50;95.30;;;;;;5063353;28;20660;-92
2023/10/31 09:38:41;;;;;;;81.27;76.40;;;10.60;95.40;;;;;;5040176;28;20655;-92
2023/10/31 09:41:07;;;;;;;79.05;74.15;;;10.60;95.30;;;;;;5040881;28;20245;-92
2023/10/31 09:43:32;;;;;;;71.03;66.67;;;10.60;95.30;;;;;;5041042;28;20202;-91
2023/10/31 09:46:00;;;;;;;71.73;67.30;;;10.60;95.20;;;;;;5058072;28;20726;-90
2023/10/31 09:48:26;;;;;;;78.20;73.53;;;10.60;95.30;;;;;;5044087;28;20156;-92
2023/10/31 09:50:53;;;;;;;79.30;74.40;;;10.50;95.10;;;;;;5047150;28;20160;-95
2023/10/31 09:53:20;;;;;;;80.43;75.63;;;10.60;95.20;;;;;;5043732;28;20211;-95
2023/10/31 09:55:48;;;;;;;66.40;62.60;;;10.70;95.20;;;;;;5062919;28;20192;-94
2023/10/31 09:58:14;;;;;;;68.17;63.90;;;10.60;95.10;;;;;;5068029;28;20168;-95
2023/10/31 10:00:40;;;;;;;73.07;68.77;;;10.60;95.10;;;;;;5052299;28;20233;-94
2023/10/31 10:03:10;;;;;;;76.77;72.07;;;10.70;95.20;;;;;;5050972;28;20183;-94
2023/10/31 10:05:36;;;;;;;78.43;73.73;;;10.70;95.20;;;;;;5043358;28;20210;-94
2023/10/31 10:08:03;;;;;;;69.90;65.50;;;10.70;95.10;;;;;;5045013;28;20191;-93
2023/10/31 10:10:29;;;;;;;70.90;66.70;;;10.60;95.00;;;;;;5062425;28;20199;-93
2023/10/31 10:12:55;;;;;;;71.60;67.40;;;10.60;95.00;;;;;;5038663;28;20211;-91
2023/10/31 10:15:21;;;;;;;78.77;74.17;;;10.70;95.00;;;;;;5055257;28;20225;-90
2023/10/31 10:17:53;;;;;;;75.97;71.57;;;10.60;95.00;;;;;;5055524;28;20551;-90
2023/10/31 10:20:19;;;;;;;68.13;64.07;;;10.60;95.00;;;;;;5054867;28;20172;-90
2023/10/31 10:22:44;;;;;;;67.33;63.30;;;10.50;95.00;;;;;;5036802;28;20225;-91
2023/10/31 10:25:14;;;;;;;80.07;75.57;;;10.50;95.00;;;;;;5054322;28;20222;-90
2023/10/31 10:27:40;;;;;;;79.07;74.57;;;10.50;94.90;;;;;;5036867;28;20278;-91
2023/10/31 10:30:07;;;;;;;81.03;76.37;;;10.40;94.90;;;;;;5056650;28;20168;-91
2023/10/31 10:32:33;;;;;;;72.35;68.25;;;10.40;94.90;;;;;;5035556;28;20211;-91
2023/10/31 10:35:00;;;;;;;70.17;65.97;;;10.50;94.90;;;;;;5035839;28;20192;-91
2023/10/31 10:37:27;;;;;;;77.13;72.73;;;10.40;94.90;;;;;;5037815;28;20172;-92
2023/10/31 10:39:56;;;;;;;82.60;77.70;;;10.40;94.90;;;;;;5065530;28;20745;-91
2023/10/31 10:42:46;;;;;;;65.97;62.07;;;10.40;94.90;;;;;;5052798;28;20186;-92
2023/10/31 10:45:15;;;;;;;71.17;67.07;;;10.40;95.00;;;;;;5056534;28;20207;-94
2023/10/31 10:47:46;;;;;;;62.17;58.53;;;10.40;95.00;;;;;;5044918;28;20167;-92
2023/10/31 10:50:13;;;;;;;70.70;66.37;;;10.40;94.90;;;;;;5051352;28;20271;-93
2023/10/31 10:52:56;;;;;;;67.20;63.20;;;10.30;94.90;;;;;;5052874;28;20223;-93
2023/10/31 10:55:26;;;;;;;71.40;67.23;;;10.40;94.90;;;;;;5045421;28;20203;-92
2023/10/31 10:58:02;;;;;;;72.17;67.93;;;10.40;94.90;;;;;;5046868;28;20709;-92
2023/10/31 11:00:29;;;;;;;69.30;65.10;;;10.40;94.90;;;;;;5044444;28;20180;-92
2023/10/31 11:02:56;;;;;;;69.97;65.87;;;10.40;94.90;;;;;;5038627;28;20172;-93
2023/10/31 11:05:23;;;;;;;73.33;68.93;;;10.30;94.90;;;;;;5043898;28;20198;-93
2023/10/31 11:07:49;;;;;;;74.87;70.57;;;10.30;95.00;;;;;;5041608;28;20176;-93
2023/10/31 11:10:16;;;;;;;77.73;73.33;;;10.30;94.90;;;;;;5040693;28;20195;-93
2023/10/31 11:12:43;;;;;;;74.55;70.25;;;10.30;94.90;;;;;;5042540;28;20199;-93
2023/10/31 11:15:11;;;;;;;74.63;70.23;;;10.30;95.00;;;;;;5045533;28;20192;-93
2023/10/31 11:17:39;;;;;;;74.40;70.00;;;10.30;95.00;;;;;;5042292;28;20242;-93
2023/10/31 11:20:09;;;;;;;72.67;68.37;;;10.30;94.90;;;;;;5063124;28;20184;-93
2023/10/31 11:22:39;;;;;;;79.20;74.70;;;10.20;94.90;;;;;;5044857;28;20176;-94
2023/10/31 11:25:09;;;;;;;76.60;71.93;;;10.30;95.00;;;;;;5047489;28;20192;-93
2023/10/31 11:27:36;;;;;;;76.40;72.00;;;10.30;94.90;;;;;;5046704;28;20195;-93
2023/10/31 11:30:05;;;;;;;87.67;82.57;;;10.30;95.00;;;;;;5045733;28;20202;-94
2023/10/31 11:32:32;;;;;;;84.57;79.57;;;10.40;95.00;;;;;;5044735;28;20200;-93
2023/10/31 11:34:57;;;;;;;80.90;76.17;;;10.30;94.90;;;;;;5044443;28;20646;-92
2023/10/31 11:37:26;;;;;;;69.25;65.25;;;10.30;94.90;;;;;;5044495;28;20203;-93
2023/10/31 11:40:14;;;;;;;70.27;66.07;;;10.30;94.90;;;;;;5046111;28;20176;-93
2023/10/31 11:42:46;;;;;;;78.23;73.80;;;10.50;94.90;;;;;;5047093;28;20180;-93
2023/10/31 11:45:12;;;;;;;77.23;72.53;;;10.40;94.80;;;;;;5047510;28;20211;-93
2023/10/31 11:47:48;;;;;;;76.97;72.43;;;10.60;94.90;;;;;;5043398;28;20184;-92
2023/10/31 11:50:13;;;;;;;66.70;62.83;;;10.60;94.80;;;;;;5047250;28;20160;-93
2023/10/31 11:52:39;;;;;;;64.93;61.20;;;10.70;94.80;;;;;;5055090;28;20199;-93
2023/10/31 11:55:12;;;;;;;73.73;69.47;;;11.00;94.80;;;;;;5063120;28;20230;-93
2023/10/31 11:57:38;;;;;;;90.90;85.60;;;11.10;94.50;;;;;;5063489;28;20156;-93
2023/10/31 12:00:07;;;;;;;88.47;83.43;;;11.20;94.60;;;;;;5061413;28;20173;-93
2023/10/31 12:02:33;;;;;;;67.47;63.47;;;11.20;94.50;;;;;;5053216;28;20195;-92
2023/10/31 12:05:13;;;;;;;65.43;61.67;;;10.80;93.60;;;;;;5051398;28;20223;-94
2023/10/31 12:07:45;;;;;;;89.53;84.33;;;10.80;93.40;;;;;;5045375;28;20187;-92
2023/10/31 12:10:11;;;;;;;89.73;84.57;;;10.80;93.20;;;;;;5045816;28;20180;-93
2023/10/31 12:12:37;;;;;;;62.90;59.30;;;10.80;92.90;;;;;;5047661;28;20588;-94